Time;durP1;ratioP1;P1;durP2;ratioP2;P2;SDS_P1;SDS_P2;PMS_P1;PMS_P2;Temp;Humidity;BMP_temperature;BMP_pressure;BME280_temperature;BME280_humidity;BME280_pressure;Samples;Min_cycle;Max_cycle;Signal;HPM_P1;HPM_P2
2023/12/20 00:00:26;;;;;;;2.97;1.60;;;22.90;51.70;;;;;;4855948;29;94508;-84
2023/12/20 00:02:51;;;;;;;2.35;1.30;;;22.90;51.80;;;;;;4853874;28;92766;-87
2023/12/20 00:05:17;;;;;;;3.25;1.55;;;22.90;51.70;;;;;;4854432;29;92076;-87
2023/12/20 00:07:43;;;;;;;3.05;1.70;;;22.90;51.70;;;;;;4853983;28;93070;-84
2023/12/20 00:10:09;;;;;;;2.30;1.60;;;22.80;51.70;;;;;;4854501;29;92697;-84
2023/12/20 00:12:34;;;;;;;2.38;1.30;;;22.80;51.70;;;;;;4854640;29;92783;-84
2023/12/20 00:15:00;;;;;;;3.58;1.77;;;22.80;51.80;;;;;;4854553;28;92221;-83
2023/12/20 00:17:26;;;;;;;2.72;1.58;;;22.70;51.80;;;;;;4853041;29;92546;-87
2023/12/20 00:19:51;;;;;;;3.20;1.52;;;22.80;51.90;;;;;;4851973;28;94172;-84
2023/12/20 00:22:17;;;;;;;2.75;1.48;;;22.70;51.90;;;;;;4851456;28;93672;-87
2023/12/20 00:24:43;;;;;;;2.47;1.40;;;22.70;51.80;;;;;;4853402;28;92189;-84
2023/12/20 00:27:08;;;;;;;4.10;1.65;;;22.60;51.80;;;;;;4851993;28;92699;-87
2023/12/20 00:29:34;;;;;;;1.77;1.27;;;22.70;52.40;;;;;;4852902;28;92735;-86
2023/12/20 00:32:00;;;;;;;1.95;1.40;;;22.60;51.90;;;;;;4852958;28;92280;-85
2023/12/20 00:34:25;;;;;;;3.63;1.45;;;22.60;51.80;;;;;;4856563;28;92528;-83
2023/12/20 00:36:51;;;;;;;4.22;1.80;;;22.60;51.90;;;;;;4856523;28;91736;-84
2023/12/20 00:39:16;;;;;;;2.58;1.50;;;22.60;51.80;;;;;;4856160;28;93267;-86
2023/12/20 00:41:42;;;;;;;2.85;1.42;;;22.60;51.80;;;;;;4854181;28;92712;-84
2023/12/20 00:44:08;;;;;;;2.78;1.58;;;22.50;51.90;;;;;;4854770;28;93906;-86
2023/12/20 00:46:34;;;;;;;2.80;1.50;;;22.50;51.90;;;;;;4853286;29;92563;-83
2023/12/20 00:48:59;;;;;;;3.88;1.85;;;22.50;51.90;;;;;;4856732;29;92880;-91
2023/12/20 00:51:25;;;;;;;3.72;1.58;;;22.40;51.40;;;;;;4855904;28;93173;-83
2023/12/20 00:53:54;;;;;;;3.47;1.58;;;22.40;51.30;;;;;;4854724;28;92573;-84
2023/12/20 00:56:20;;;;;;;2.85;1.55;;;22.40;51.50;;;;;;4855473;28;93111;-85
2023/12/20 00:58:46;;;;;;;2.75;1.42;;;22.40;52.00;;;;;;4853839;29;92696;-85
2023/12/20 01:01:12;;;;;;;3.22;1.30;;;22.40;52.00;;;;;;4854647;28;94740;-87
2023/12/20 01:03:38;;;;;;;2.42;1.35;;;22.40;51.40;;;;;;4855761;28;92694;-85
2023/12/20 01:06:05;;;;;;;2.63;1.30;;;22.30;51.40;;;;;;4853771;28;92097;-85
2023/12/20 01:08:30;;;;;;;2.15;1.30;;;22.30;51.40;;;;;;4853414;28;94229;-84
2023/12/20 01:10:56;;;;;;;2.45;1.52;;;22.30;51.50;;;;;;4853214;29;95319;-87
2023/12/20 01:13:22;;;;;;;2.03;1.50;;;22.30;51.60;;;;;;4854679;28;93021;-85
2023/12/20 01:15:48;;;;;;;2.42;1.20;;;22.30;51.40;;;;;;4854615;28;92787;-87
2023/12/20 01:18:14;;;;;;;2.35;1.17;;;22.30;51.50;;;;;;4854511;28;93648;-85
2023/12/20 01:20:40;;;;;;;2.03;1.10;;;22.20;51.40;;;;;;4854002;28;93208;-84
2023/12/20 01:23:06;;;;;;;2.92;1.40;;;22.20;51.50;;;;;;4854059;29;92502;-86
2023/12/20 01:25:33;;;;;;;2.00;1.40;;;22.20;51.50;;;;;;4854528;28;91639;-86
2023/12/20 01:27:58;;;;;;;3.63;1.38;;;22.20;51.60;;;;;;4852670;28;92629;-85
2023/12/20 01:30:24;;;;;;;2.05;1.20;;;22.20;51.70;;;;;;4853599;28;93293;-83
2023/12/20 01:32:49;;;;;;;2.53;1.38;;;22.20;51.60;;;;;;4853814;28;93483;-85
2023/12/20 01:35:15;;;;;;;3.20;1.52;;;22.10;51.70;;;;;;4853312;28;93350;-84
2023/12/20 01:37:41;;;;;;;2.20;1.40;;;22.10;51.80;;;;;;4853922;28;92039;-85
2023/12/20 01:40:07;;;;;;;2.35;1.35;;;22.10;51.70;;;;;;4852363;28;93170;-84
2023/12/20 01:42:33;;;;;;;2.30;1.50;;;22.10;51.80;;;;;;4854867;28;92805;-83
2023/12/20 01:44:59;;;;;;;2.00;1.25;;;22.10;51.70;;;;;;4853958;29;92678;-84
2023/12/20 01:47:26;;;;;;;2.35;1.48;;;22.10;51.70;;;;;;4854385;28;93387;-83
2023/12/20 01:49:52;;;;;;;2.95;1.30;;;22.10;51.60;;;;;;4854951;28;92417;-89
2023/12/20 01:52:20;;;;;;;2.90;1.50;;;22.10;51.70;;;;;;4853428;28;95684;-84
2023/12/20 01:54:47;;;;;;;3.47;1.33;;;22.00;51.70;;;;;;4855002;28;93168;-83
2023/12/20 01:57:13;;;;;;;3.13;1.48;;;22.00;51.60;;;;;;4854368;28;94591;-86
2023/12/20 01:59:40;;;;;;;2.00;1.30;;;22.00;51.60;;;;;;4854182;29;93380;-85
2023/12/20 02:02:07;;;;;;;2.22;1.25;;;22.00;51.70;;;;;;4853113;28;92821;-85
2023/12/20 02:04:33;;;;;;;1.63;1.02;;;22.00;51.60;;;;;;4852753;28;92462;-83
2023/12/20 02:06:59;;;;;;;2.38;1.20;;;21.90;51.70;;;;;;4854896;28;92952;-85
2023/12/20 02:09:25;;;;;;;1.80;1.27;;;22.00;51.90;;;;;;4854432;29;96266;-84
2023/12/20 02:11:50;;;;;;;1.80;1.08;;;21.90;51.70;;;;;;4855592;28;92491;-83
2023/12/20 02:14:16;;;;;;;2.00;1.38;;;21.90;51.70;;;;;;4852728;28;92322;-84
2023/12/20 02:16:42;;;;;;;2.75;1.63;;;21.90;51.60;;;;;;4853233;28;92438;-85
2023/12/20 02:19:15;;;;;;;1.90;1.42;;;21.90;51.60;;;;;;4854838;29;92664;-83
2023/12/20 02:21:40;;;;;;;2.85;1.38;;;21.90;51.70;;;;;;4856172;28;93683;-84
2023/12/20 02:24:06;;;;;;;1.85;1.17;;;21.90;51.90;;;;;;4855003;28;92730;-82
2023/12/20 02:26:33;;;;;;;1.10;1.00;;;21.80;51.80;;;;;;4855502;28;92777;-85
2023/12/20 02:28:59;;;;;;;3.22;1.40;;;21.80;51.80;;;;;;4851824;28;95569;-82
2023/12/20 02:31:25;;;;;;;1.52;1.13;;;21.80;51.70;;;;;;4855604;28;92852;-85
2023/12/20 02:33:51;;;;;;;2.65;1.27;;;21.80;51.60;;;;;;4853874;29;92184;-82
2023/12/20 02:36:16;;;;;;;2.90;1.70;;;21.80;51.80;;;;;;4855426;29;92746;-85
2023/12/20 02:38:42;;;;;;;1.40;1.20;;;21.80;51.80;;;;;;4854363;28;92321;-83
2023/12/20 02:41:08;;;;;;;1.73;1.20;;;21.80;51.70;;;;;;4854613;28;92656;-87
2023/12/20 02:43:33;;;;;;;1.85;1.23;;;21.80;51.80;;;;;;4854792;28;92431;-89
2023/12/20 02:45:59;;;;;;;1.42;1.10;;;21.70;51.70;;;;;;4853801;28;94885;-86
2023/12/20 02:48:24;;;;;;;1.55;1.08;;;21.70;52.00;;;;;;4854291;28;94195;-83
2023/12/20 02:50:51;;;;;;;2.65;1.52;;;21.70;51.80;;;;;;4852702;28;92640;-85
2023/12/20 02:53:16;;;;;;;2.85;1.30;;;21.70;52.00;;;;;;4852888;29;92855;-86
2023/12/20 02:55:42;;;;;;;1.33;0.93;;;21.70;51.90;;;;;;4852443;28;92349;-83
2023/12/20 02:58:08;;;;;;;1.95;1.10;;;21.70;52.10;;;;;;4851738;28;92859;-84
2023/12/20 03:00:34;;;;;;;1.88;1.15;;;21.70;51.90;;;;;;4854647;28;92373;-87
2023/12/20 03:02:59;;;;;;;2.63;1.42;;;21.60;52.00;;;;;;4853858;28;92024;-83
2023/12/20 03:05:25;;;;;;;1.23;1.13;;;21.60;51.90;;;;;;4852348;28;92694;-84
2023/12/20 03:07:51;;;;;;;3.70;1.70;;;21.60;51.80;;;;;;4853207;28;93185;-83
2023/12/20 03:10:18;;;;;;;1.85;1.20;;;21.60;51.70;;;;;;4853175;29;93786;-87
2023/12/20 03:12:44;;;;;;;2.22;1.20;;;21.60;51.90;;;;;;4855067;28;92783;-84
2023/12/20 03:15:10;;;;;;;1.23;0.85;;;21.60;51.70;;;;;;4854261;28;93238;-87
2023/12/20 03:17:36;;;;;;;2.42;1.10;;;21.60;52.00;;;;;;4853353;28;93241;-86
2023/12/20 03:20:02;;;;;;;2.15;1.40;;;21.60;51.90;;;;;;4853152;28;92099;-87
2023/12/20 03:22:28;;;;;;;2.30;1.10;;;21.60;51.80;;;;;;4851758;28;92725;-86
2023/12/20 03:24:53;;;;;;;1.38;1.20;;;21.50;51.80;;;;;;4853126;28;93328;-87
2023/12/20 03:27:19;;;;;;;1.73;1.05;;;21.50;51.70;;;;;;4855071;28;92474;-83
2023/12/20 03:29:45;;;;;;;1.42;0.98;;;21.50;51.70;;;;;;4852479;28;92631;-86
2023/12/20 03:32:10;;;;;;;2.45;1.40;;;21.50;51.70;;;;;;4853918;28;92704;-84
2023/12/20 03:34:36;;;;;;;1.40;1.10;;;21.50;51.60;;;;;;4855382;28;94101;-89
2023/12/20 03:37:02;;;;;;;1.00;0.90;;;21.50;51.50;;;;;;4854486;28;92230;-85
2023/12/20 03:39:27;;;;;;;3.13;1.10;;;21.50;51.70;;;;;;4856478;28;93034;-84
2023/12/20 03:41:53;;;;;;;2.42;1.33;;;21.50;51.60;;;;;;4854542;28;92341;-84
2023/12/20 03:44:20;;;;;;;1.35;1.02;;;21.50;51.70;;;;;;4852295;28;93783;-87
2023/12/20 03:46:46;;;;;;;1.38;1.10;;;21.50;51.60;;;;;;4853040;28;92689;-86
2023/12/20 03:49:11;;;;;;;2.25;1.00;;;21.40;51.70;;;;;;4854579;28;92378;-87
2023/12/20 03:51:37;;;;;;;2.15;1.10;;;21.40;51.60;;;;;;4857506;28;91745;-86
2023/12/20 03:54:03;;;;;;;2.80;1.13;;;21.50;51.70;;;;;;4854401;29;93062;-84
2023/12/20 03:56:29;;;;;;;1.77;1.20;;;21.40;51.70;;;;;;4855470;28;92188;-84
2023/12/20 03:58:55;;;;;;;1.10;0.95;;;21.40;51.70;;;;;;4856252;28;93791;-85
2023/12/20 04:01:20;;;;;;;2.45;1.25;;;21.40;51.70;;;;;;4854519;28;92847;-86
2023/12/20 04:03:46;;;;;;;1.90;1.35;;;21.40;51.70;;;;;;4854241;29;92255;-83
2023/12/20 04:06:19;;;;;;;1.10;0.95;;;21.40;51.70;;;;;;4855192;28;92711;-86
2023/12/20 04:08:45;;;;;;;1.63;0.90;;;21.40;51.80;;;;;;4857397;28;92801;-86
2023/12/20 04:11:10;;;;;;;1.33;0.80;;;21.30;51.70;;;;;;4859543;28;92461;-85
2023/12/20 04:13:36;;;;;;;2.05;0.98;;;21.30;51.70;;;;;;4861177;28;92619;-84
2023/12/20 04:16:02;;;;;;;1.95;0.90;;;21.30;51.80;;;;;;4860776;28;92685;-83
2023/12/20 04:18:28;;;;;;;1.70;0.90;;;21.30;51.80;;;;;;4861410;28;92722;-82
2023/12/20 04:20:54;;;;;;;1.80;1.17;;;21.30;51.70;;;;;;4859309;29;92221;-85
2023/12/20 04:23:19;;;;;;;1.90;0.98;;;21.30;51.80;;;;;;4858726;28;94043;-87
2023/12/20 04:25:45;;;;;;;1.52;1.15;;;21.30;51.90;;;;;;4859042;28;92993;-86
2023/12/20 04:28:11;;;;;;;2.50;1.10;;;21.30;51.80;;;;;;4857058;29;92576;-84
2023/12/20 04:30:36;;;;;;;2.00;0.98;;;21.30;51.70;;;;;;4859437;28;92899;-84
2023/12/20 04:33:02;;;;;;;1.45;1.00;;;21.30;51.90;;;;;;4859758;28;93709;-84
2023/12/20 04:35:28;;;;;;;1.77;0.90;;;21.30;51.90;;;;;;4856332;29;93897;-85
2023/12/20 04:37:53;;;;;;;1.70;1.10;;;21.20;51.80;;;;;;4857335;28;92036;-84
2023/12/20 04:40:20;;;;;;;2.03;1.15;;;21.20;51.70;;;;;;4857111;28;92412;-83
2023/12/20 04:42:45;;;;;;;0.80;0.73;;;21.20;51.60;;;;;;4855555;28;93476;-82
2023/12/20 04:45:13;;;;;;;1.60;0.90;;;21.20;51.70;;;;;;4856480;28;92927;-83
2023/12/20 04:47:39;;;;;;;1.30;1.10;;;21.20;51.70;;;;;;4855778;28;93342;-82
2023/12/20 04:50:05;;;;;;;1.73;1.35;;;21.20;51.60;;;;;;4856524;29;92450;-86
2023/12/20 04:52:31;;;;;;;1.27;1.10;;;21.20;51.60;;;;;;4857724;28;92731;-85
2023/12/20 04:54:57;;;;;;;1.48;0.90;;;21.20;51.80;;;;;;4860783;28;93172;-84
2023/12/20 04:57:22;;;;;;;2.20;1.13;;;21.20;51.50;;;;;;4862111;28;92356;-85
2023/12/20 04:59:48;;;;;;;1.35;0.90;;;21.20;51.70;;;;;;4861614;28;92599;-84
2023/12/20 05:02:14;;;;;;;2.33;1.10;;;21.20;51.60;;;;;;4861678;28;93054;-83
2023/12/20 05:04:40;;;;;;;1.88;1.17;;;21.10;51.70;;;;;;4860076;28;94238;-84
2023/12/20 05:07:06;;;;;;;1.45;1.17;;;21.10;51.60;;;;;;4861871;29;93898;-83
2023/12/20 05:09:32;;;;;;;2.25;1.23;;;21.20;51.70;;;;;;4863059;28;91974;-86
2023/12/20 05:11:57;;;;;;;1.88;1.15;;;21.10;51.70;;;;;;4858244;29;93670;-82
2023/12/20 05:14:23;;;;;;;1.05;0.95;;;21.20;51.70;;;;;;4857027;28;92101;-83
2023/12/20 05:16:48;;;;;;;1.70;0.77;;;21.10;51.70;;;;;;4859590;28;92709;-83
2023/12/20 05:19:14;;;;;;;1.90;1.13;;;21.10;51.80;;;;;;4857355;28;92406;-82
2023/12/20 05:21:40;;;;;;;2.28;1.33;;;21.10;51.60;;;;;;4856185;28;92578;-85
2023/12/20 05:24:05;;;;;;;1.83;0.80;;;21.10;51.80;;;;;;4855851;28;92502;-84
2023/12/20 05:26:31;;;;;;;0.93;0.75;;;21.10;51.80;;;;;;4856113;29;92585;-85
2023/12/20 05:28:57;;;;;;;1.27;0.90;;;21.10;51.70;;;;;;4856153;29;92073;-85
2023/12/20 05:31:22;;;;;;;1.50;0.90;;;21.10;51.70;;;;;;4854674;28;93258;-84
2023/12/20 05:33:48;;;;;;;1.20;0.95;;;21.10;51.70;;;;;;4856192;29;97736;-84
2023/12/20 05:36:15;;;;;;;1.52;0.88;;;21.00;51.60;;;;;;4855042;29;93721;-83
2023/12/20 05:38:40;;;;;;;2.45;1.15;;;21.10;51.60;;;;;;4857181;28;92427;-87
2023/12/20 05:41:06;;;;;;;1.65;1.15;;;21.10;51.80;;;;;;4855657;28;92679;-86
2023/12/20 05:43:32;;;;;;;1.85;1.10;;;21.00;51.60;;;;;;4855862;28;92658;-83
2023/12/20 05:45:58;;;;;;;1.48;1.00;;;21.00;51.70;;;;;;4855373;28;92792;-84
2023/12/20 05:48:23;;;;;;;3.00;1.05;;;21.00;51.70;;;;;;4858392;28;92772;-84
2023/12/20 05:50:49;;;;;;;2.13;1.30;;;21.00;51.70;;;;;;4855820;28;92532;-86
2023/12/20 05:53:15;;;;;;;2.22;1.33;;;21.00;51.90;;;;;;4857090;28;92128;-86
2023/12/20 05:55:40;;;;;;;2.60;1.20;;;21.00;51.80;;;;;;4857764;28;92359;-83
2023/12/20 05:58:06;;;;;;;1.20;1.00;;;21.00;51.70;;;;;;4858466;28;92357;-86
2023/12/20 06:00:31;;;;;;;1.88;1.05;;;21.00;51.80;;;;;;4859215;29;93823;-82
2023/12/20 06:02:57;;;;;;;2.38;1.20;;;21.00;51.70;;;;;;4860677;29;94217;-85
2023/12/20 06:05:23;;;;;;;1.10;0.70;;;21.00;51.80;;;;;;4867497;28;91972;-83
2023/12/20 06:07:50;;;;;;;3.03;1.10;;;21.00;51.80;;;;;;4871071;28;92273;-82
2023/12/20 06:10:16;;;;;;;1.38;1.00;;;21.00;51.80;;;;;;4868550;28;91979;-82
2023/12/20 06:12:42;;;;;;;1.77;0.90;;;20.90;51.60;;;;;;4870470;28;92030;-83
2023/12/20 06:15:08;;;;;;;2.20;1.23;;;20.90;51.60;;;;;;4873001;29;92190;-83
2023/12/20 06:17:34;;;;;;;1.70;1.00;;;20.90;51.50;;;;;;4871265;28;91352;-82
2023/12/20 06:20:00;;;;;;;1.75;0.98;;;20.90;51.70;;;;;;4876627;28;92053;-82
2023/12/20 06:22:26;;;;;;;2.13;0.98;;;20.90;51.70;;;;;;4874703;28;93172;-83
2023/12/20 06:24:52;;;;;;;1.13;0.90;;;20.90;51.50;;;;;;4881923;28;92578;-83
2023/12/20 06:27:18;;;;;;;2.33;1.20;;;20.90;51.60;;;;;;4881938;28;91784;-84
2023/12/20 06:29:44;;;;;;;1.55;1.00;;;20.90;51.70;;;;;;4881231;28;92101;-85
2023/12/20 06:32:10;;;;;;;1.52;0.93;;;20.90;51.70;;;;;;4880783;28;94418;-84
2023/12/20 06:34:36;;;;;;;2.13;0.90;;;20.80;51.70;;;;;;4867501;28;91925;-82
2023/12/20 06:37:01;;;;;;;1.00;0.88;;;20.90;51.50;;;;;;4869308;29;91944;-83
2023/12/20 06:39:27;;;;;;;1.45;0.90;;;20.80;51.60;;;;;;4865966;29;92316;-82
2023/12/20 06:41:53;;;;;;;1.75;1.20;;;20.80;51.60;;;;;;4864716;29;92365;-84
2023/12/20 06:44:19;;;;;;;1.70;1.33;;;20.80;51.60;;;;;;4862996;28;92045;-85
2023/12/20 06:46:44;;;;;;;0.63;0.63;;;20.80;51.70;;;;;;4861052;28;92319;-87
2023/12/20 06:49:10;;;;;;;0.88;0.77;;;20.80;51.80;;;;;;4858545;28;95029;-85
2023/12/20 06:51:36;;;;;;;1.20;1.10;;;20.80;51.70;;;;;;4857252;28;92745;-84
2023/12/20 06:54:02;;;;;;;1.90;0.90;;;20.80;51.70;;;;;;4856964;28;92503;-85
2023/12/20 06:56:28;;;;;;;3.40;1.45;;;20.80;51.60;;;;;;4853874;28;92636;-84
2023/12/20 06:58:54;;;;;;;1.45;0.82;;;20.70;50.00;;;;;;4854858;28;93162;-85
2023/12/20 07:01:19;;;;;;;1.02;0.80;;;20.70;50.10;;;;;;4854573;29;92574;-83
2023/12/20 07:03:45;;;;;;;1.17;0.85;;;20.70;50.50;;;;;;4854241;28;92681;-87
2023/12/20 07:06:11;;;;;;;2.28;1.35;;;20.70;50.30;;;;;;4853382;28;92017;-85
2023/12/20 07:08:36;;;;;;;4.22;1.35;;;20.70;50.40;;;;;;4852916;28;93608;-86
2023/12/20 07:11:02;;;;;;;3.85;1.20;;;20.70;50.30;;;;;;4853417;28;92424;-82
2023/12/20 07:13:28;;;;;;;2.45;1.10;;;20.70;50.40;;;;;;4852302;28;93418;-84
2023/12/20 07:15:54;;;;;;;2.13;1.17;;;20.70;51.00;;;;;;4853014;28;92606;-85
2023/12/20 07:18:19;;;;;;;2.85;1.75;;;20.70;50.50;;;;;;4852128;29;92818;-83
2023/12/20 07:20:45;;;;;;;2.55;1.10;;;20.70;50.20;;;;;;4850554;28;92854;-84
2023/12/20 07:23:11;;;;;;;1.05;0.85;;;20.70;50.10;;;;;;4853925;28;92352;-83
2023/12/20 07:25:36;;;;;;;1.15;0.98;;;20.70;50.10;;;;;;4852955;28;92757;-83
2023/12/20 07:28:02;;;;;;;1.10;0.77;;;20.70;50.60;;;;;;4852303;28;92833;-82
2023/12/20 07:30:28;;;;;;;2.28;1.20;;;20.60;50.90;;;;;;4852968;29;91636;-83
2023/12/20 07:32:54;;;;;;;1.83;1.30;;;20.70;50.60;;;;;;4851738;28;92944;-85
2023/12/20 07:35:19;;;;;;;1.52;0.98;;;20.60;50.70;;;;;;4851433;28;93045;-82
2023/12/20 07:37:45;;;;;;;3.38;1.35;;;20.70;51.10;;;;;;4851015;28;94088;-84
2023/12/20 07:40:11;;;;;;;1.63;0.70;;;20.70;51.10;;;;;;4851272;28;92736;-82
2023/12/20 07:42:36;;;;;;;2.50;1.00;;;20.70;51.10;;;;;;4854909;28;92222;-83
2023/12/20 07:45:04;;;;;;;1.75;0.90;;;20.70;51.10;;;;;;4852226;28;93084;-84
2023/12/20 07:47:29;;;;;;;2.35;1.00;;;20.80;51.60;;;;;;4853711;28;92914;-84
2023/12/20 07:49:55;;;;;;;2.75;1.20;;;20.90;51.60;;;;;;4853139;28;92469;-83
2023/12/20 07:52:22;;;;;;;2.78;1.10;;;21.00;51.90;;;;;;4850378;29;92238;-84
2023/12/20 07:54:48;;;;;;;1.75;0.98;;;21.10;51.60;;;;;;4851713;28;91495;-82
2023/12/20 07:57:13;;;;;;;2.47;1.05;;;21.20;51.70;;;;;;4852739;29;94189;-88
2023/12/20 07:59:39;;;;;;;1.30;0.80;;;21.30;51.50;;;;;;4852531;28;93169;-82
2023/12/20 08:02:06;;;;;;;4.55;1.27;;;21.40;51.60;;;;;;4851024;29;93816;-83
2023/12/20 08:04:32;;;;;;;1.55;0.77;;;21.50;51.30;;;;;;4849907;28;92354;-85
2023/12/20 08:06:58;;;;;;;2.88;1.05;;;21.60;51.20;;;;;;4849668;28;93109;-84
2023/12/20 08:09:24;;;;;;;1.63;0.77;;;21.60;51.30;;;;;;4852244;28;93061;-83
2023/12/20 08:11:49;;;;;;;2.25;1.02;;;21.70;51.20;;;;;;4852324;28;92964;-85
2023/12/20 08:14:15;;;;;;;2.08;1.15;;;21.80;51.10;;;;;;4852009;28;92030;-83
2023/12/20 08:16:41;;;;;;;2.25;1.38;;;21.80;51.00;;;;;;4850544;29;95231;-84
2023/12/20 08:19:07;;;;;;;2.13;1.25;;;21.80;50.90;;;;;;4850231;28;94189;-85
2023/12/20 08:21:33;;;;;;;4.95;1.05;;;21.90;50.70;;;;;;4852570;28;92757;-85
2023/12/20 08:24:00;;;;;;;4.35;1.30;;;22.00;50.50;;;;;;4851498;28;92758;-84
2023/12/20 08:26:26;;;;;;;3.90;1.60;;;22.00;50.30;;;;;;4850615;28;93779;-84
2023/12/20 08:28:52;;;;;;;11.27;2.78;;;22.20;50.20;;;;;;4850417;28;93204;-83
2023/12/20 08:31:18;;;;;;;8.75;2.95;;;22.20;49.90;;;;;;4851056;29;92893;-83
2023/12/20 08:33:45;;;;;;;9.77;1.80;;;22.20;49.90;;;;;;4849616;29;92381;-83
2023/12/20 08:36:11;;;;;;;12.48;2.72;;;22.30;50.00;;;;;;4849224;28;92384;-81
2023/12/20 08:38:37;;;;;;;13.63;3.35;;;22.30;49.30;;;;;;4848916;29;92541;-82
2023/12/20 08:41:05;;;;;;;11.48;2.88;;;22.30;49.30;;;;;;4849000;28;92719;-82
2023/12/20 08:43:31;;;;;;;13.85;2.83;;;22.40;49.10;;;;;;4847991;28;92206;-82
2023/12/20 08:45:57;;;;;;;13.27;3.83;;;22.40;49.20;;;;;;4849457;29;92659;-84
2023/12/20 08:48:22;;;;;;;11.57;3.40;;;22.40;49.10;;;;;;4848937;28;95079;-82
2023/12/20 08:50:52;;;;;;;12.15;3.15;;;22.40;48.90;;;;;;4852717;28;93521;-86
2023/12/20 08:53:18;;;;;;;;;;;22.50;48.90;;;;;;4854479;29;92563;-83
2023/12/20 08:55:43;;;;;;;12.45;3.60;;;22.50;49.10;;;;;;4858294;28;92975;-84
2023/12/20 08:58:09;;;;;;;9.07;3.00;;;22.50;49.10;;;;;;4856756;28;93040;-82
2023/12/20 09:00:35;;;;;;;13.90;3.95;;;22.50;49.10;;;;;;4859329;28;92441;-83
2023/12/20 09:03:04;;;;;;;7.55;2.42;;;22.60;49.20;;;;;;4859711;28;92314;-82
2023/12/20 09:05:30;;;;;;;8.98;2.88;;;22.60;49.20;;;;;;4857822;29;93593;-81
2023/12/20 09:07:55;;;;;;;8.90;2.88;;;22.60;49.50;;;;;;4858185;28;92777;-83
2023/12/20 09:10:24;;;;;;;11.45;3.47;;;22.50;49.40;;;;;;4856443;28;92684;-82
2023/12/20 09:12:51;;;;;;;9.95;2.92;;;22.60;49.20;;;;;;4857531;29;92790;-82
2023/12/20 09:15:16;;;;;;;7.43;3.10;;;22.60;49.20;;;;;;4856613;28;94042;-83
2023/12/20 09:17:43;;;;;;;9.13;2.80;;;22.70;49.30;;;;;;4852952;28;94235;-83
2023/12/20 09:20:09;;;;;;;8.30;3.03;;;22.60;49.40;;;;;;4854439;28;92469;-83
2023/12/20 09:22:35;;;;;;;7.93;2.75;;;22.60;49.50;;;;;;4853582;28;93231;-82
2023/12/20 09:25:01;;;;;;;9.10;2.40;;;22.60;49.40;;;;;;4853339;28;92625;-83
2023/12/20 09:27:27;;;;;;;6.82;2.97;;;22.70;49.50;;;;;;4852869;29;92355;-85
2023/12/20 09:29:53;;;;;;;11.52;3.28;;;22.70;49.30;;;;;;4854378;28;93017;-85
2023/12/20 09:32:20;;;;;;;11.02;2.70;;;22.70;49.20;;;;;;4854983;28;91938;-87
2023/12/20 09:34:47;;;;;;;8.80;3.00;;;22.80;49.20;;;;;;4853910;28;93981;-83
2023/12/20 09:37:13;;;;;;;9.50;2.95;;;22.80;48.90;;;;;;4854435;28;93013;-87
2023/12/20 09:39:39;;;;;;;8.00;2.83;;;22.80;48.70;;;;;;4855416;29;93005;-84
2023/12/20 09:42:06;;;;;;;9.45;2.55;;;22.80;48.80;;;;;;4853776;28;92447;-85
2023/12/20 09:44:34;;;;;;;12.32;3.17;;;22.80;48.80;;;;;;4851843;28;93109;-85
2023/12/20 09:47:05;;;;;;;8.88;2.67;;;22.80;48.90;;;;;;4851263;29;96085;-85
2023/12/20 09:49:32;;;;;;;12.55;2.88;;;22.90;49.10;;;;;;4852167;28;92596;-86
2023/12/20 09:51:59;;;;;;;12.35;3.17;;;22.90;49.10;;;;;;4851016;28;92002;-85
2023/12/20 09:54:26;;;;;;;10.70;3.47;;;22.90;49.20;;;;;;4853179;29;95753;-84
2023/12/20 09:56:52;;;;;;;9.95;3.22;;;22.90;49.30;;;;;;4852953;29;92571;-84
2023/12/20 09:59:18;;;;;;;12.05;3.75;;;22.90;49.50;;;;;;4852874;29;92793;-83
2023/12/20 10:01:44;;;;;;;13.52;3.47;;;23.00;49.60;;;;;;4854183;29;92682;-89
2023/12/20 10:04:15;;;;;;;9.90;2.60;;;23.00;49.40;;;;;;4851851;29;94026;-87
2023/12/20 10:06:41;;;;;;;6.53;2.55;;;23.00;49.10;;;;;;4853936;28;93807;-88
2023/12/20 10:09:07;;;;;;;10.50;2.33;;;23.00;48.60;;;;;;4853776;28;92937;-84
2023/12/20 10:11:37;;;;;;;7.75;2.75;;;23.00;48.50;;;;;;4853707;29;92646;-84
2023/12/20 10:14:04;;;;;;;6.90;2.40;;;23.00;48.30;;;;;;4851024;29;94358;-83
2023/12/20 10:16:30;;;;;;;7.88;2.17;;;23.00;48.30;;;;;;4853516;29;93580;-85
2023/12/20 10:18:56;;;;;;;7.38;2.55;;;23.10;48.40;;;;;;4853908;28;92783;-87
2023/12/20 10:21:24;;;;;;;10.32;3.05;;;23.10;48.40;;;;;;4854198;29;92047;-84
2023/12/20 10:23:50;;;;;;;5.05;2.30;;;23.10;48.50;;;;;;4853715;29;93751;-84
2023/12/20 10:26:25;;;;;;;7.78;3.03;;;23.20;48.40;;;;;;4854338;28;92514;-85
2023/12/20 10:28:54;;;;;;;9.23;2.45;;;23.10;49.20;;;;;;4852041;29;93842;-83
2023/12/20 10:31:34;;;;;;;6.17;2.23;;;23.10;48.50;;;;;;4854508;28;92422;-84
2023/12/20 10:34:01;;;;;;;8.15;2.58;;;23.10;48.60;;;;;;4853584;28;93668;-86
2023/12/20 10:36:30;;;;;;;5.57;2.85;;;23.10;48.50;;;;;;4853541;28;92450;-87
2023/12/20 10:38:58;;;;;;;7.10;2.77;;;23.10;48.70;;;;;;4853493;29;92342;-85
2023/12/20 10:41:31;;;;;;;7.50;2.53;;;23.10;48.70;;;;;;4853032;28;92656;-84
2023/12/20 10:44:02;;;;;;;7.38;2.10;;;23.20;48.70;;;;;;4853433;28;93148;-84
2023/12/20 10:46:29;;;;;;;7.70;3.00;;;23.20;48.90;;;;;;4852366;28;92963;-84
2023/12/20 10:48:56;;;;;;;6.22;2.33;;;23.10;48.80;;;;;;4852867;28;92023;-87
2023/12/20 10:51:23;;;;;;;7.95;3.03;;;23.10;49.00;;;;;;4854334;28;92927;-83
2023/12/20 10:53:50;;;;;;;5.63;1.80;;;23.10;48.80;;;;;;4852942;28;93934;-83
2023/12/20 10:56:18;;;;;;;5.70;2.15;;;23.10;49.00;;;;;;4853871;28;93729;-88
2023/12/20 10:58:45;;;;;;;6.45;2.78;;;23.10;48.90;;;;;;4853538;29;92716;-83
2023/12/20 11:01:16;;;;;;;5.50;2.47;;;23.10;48.90;;;;;;4852736;29;92182;-88
2023/12/20 11:03:52;;;;;;;7.13;2.25;;;23.10;49.00;;;;;;4851075;28;92722;-89
2023/12/20 11:06:31;;;;;;;6.85;2.30;;;23.20;48.80;;;;;;4850549;28;99886;-84
2023/12/20 11:09:16;;;;;;;4.65;1.60;;;23.10;48.80;;;;;;4850559;28;92758;-83
2023/12/20 11:12:07;;;;;;;7.00;2.08;;;23.10;48.80;;;;;;4853160;29;92018;-86
2023/12/20 11:14:38;;;;;;;5.57;1.88;;;23.20;49.40;;;;;;4851242;29;96288;-85
2023/12/20 11:17:17;;;;;;;5.43;2.33;;;23.20;48.80;;;;;;4851604;28;92934;-83
2023/12/20 11:19:59;;;;;;;6.47;2.13;;;23.20;49.40;;;;;;4852367;28;93582;-84
2023/12/20 11:22:25;;;;;;;7.65;2.53;;;23.20;48.90;;;;;;4852279;28;92836;-84
2023/12/20 11:24:53;;;;;;;5.45;2.08;;;23.20;48.90;;;;;;4851700;29;94551;-83
2023/12/20 11:27:20;;;;;;;4.63;1.63;;;23.10;48.80;;;;;;4852743;28;92721;-83
2023/12/20 11:30:06;;;;;;;3.85;1.73;;;23.10;48.70;;;;;;4852964;28;94045;-83
2023/12/20 11:32:34;;;;;;;6.97;2.03;;;23.10;48.80;;;;;;4855071;28;92477;-83
2023/12/20 11:35:08;;;;;;;9.50;2.17;;;23.10;48.30;;;;;;4854216;28;93557;-86
2023/12/20 11:37:42;;;;;;;7.38;2.40;;;23.10;47.20;;;;;;4853245;29;94454;-84
2023/12/20 11:40:11;;;;;;;6.63;1.85;;;23.00;48.00;;;;;;4854910;29;92616;-83
2023/12/20 11:42:50;;;;;;;4.45;1.80;;;23.00;48.20;;;;;;4853198;29;92469;-83
2023/12/20 11:45:24;;;;;;;7.03;1.83;;;23.00;48.30;;;;;;4850482;29;98286;-84
2023/12/20 11:47:54;;;;;;;6.53;2.35;;;23.00;48.70;;;;;;4853084;28;92690;-82
2023/12/20 11:50:20;;;;;;;7.25;2.17;;;23.00;49.20;;;;;;4852748;28;92470;-82
2023/12/20 11:52:46;;;;;;;12.27;2.58;;;22.90;49.60;;;;;;4853226;28;93432;-84
2023/12/20 11:55:12;;;;;;;6.57;2.40;;;23.00;49.60;;;;;;4853349;28;93081;-84
2023/12/20 11:57:38;;;;;;;6.93;2.33;;;23.00;50.00;;;;;;4853776;28;93698;-83
2023/12/20 12:00:04;;;;;;;5.72;2.00;;;23.00;50.20;;;;;;4852507;28;92870;-84
2023/12/20 12:02:30;;;;;;;5.80;1.88;;;23.00;50.20;;;;;;4852203;28;92294;-86
2023/12/20 12:04:56;;;;;;;6.15;2.15;;;23.00;50.00;;;;;;4852190;28;93565;-82
2023/12/20 12:07:22;;;;;;;5.60;1.92;;;23.00;48.60;;;;;;4851670;29;93204;-82
2023/12/20 12:09:48;;;;;;;4.45;2.10;;;22.90;49.00;;;;;;4848814;28;93161;-83
2023/12/20 12:12:14;;;;;;;6.57;2.28;;;22.90;49.40;;;;;;4851679;28;92550;-82
2023/12/20 12:14:40;;;;;;;6.85;2.35;;;23.00;49.80;;;;;;4847671;28;92307;-81
2023/12/20 12:17:13;;;;;;;11.70;2.05;;;23.00;49.50;;;;;;4852522;28;92667;-81
2023/12/20 12:19:40;;;;;;;5.60;2.17;;;23.00;49.50;;;;;;4850645;28;93136;-85
2023/12/20 12:22:08;;;;;;;5.53;1.73;;;23.00;49.60;;;;;;4851932;28;92231;-82
2023/12/20 12:24:34;;;;;;;4.63;1.60;;;23.00;49.70;;;;;;4850672;28;92608;-83
2023/12/20 12:27:00;;;;;;;4.32;1.75;;;23.10;49.60;;;;;;4849735;29;92860;-86
2023/12/20 12:29:25;;;;;;;10.15;2.33;;;23.20;49.50;;;;;;4853758;28;92464;-82
2023/12/20 12:31:51;;;;;;;8.48;2.35;;;23.20;49.50;;;;;;4853533;28;92871;-82
2023/12/20 12:34:20;;;;;;;9.25;2.17;;;23.20;49.60;;;;;;4857038;28;95487;-80
2023/12/20 12:36:48;;;;;;;5.45;2.30;;;23.20;49.70;;;;;;4863440;28;93197;-81
2023/12/20 12:39:17;;;;;;;3.78;2.08;;;23.30;49.70;;;;;;4867732;29;92344;-81
2023/12/20 12:41:42;;;;;;;5.80;1.92;;;23.30;49.50;;;;;;4866756;28;92566;-83